EGSS Airport Information

Runway Information
Runway 04 Length 10003 ft width 151 ft
Elevation 324 ft Threshold ft Heading 44
Runway 22 Length 10003 ft Width 151 ft
Elevation 348 ft Threshold ft Heading 224
Airport Frequencies
Type APP Name Essex Rada Frequency 120.625 MHZ
Type ATIS Name ATIS Frequency 127.175 MHZ
Type CLD Name CLNC DEL Frequency 121.95 MHZ
Type DIR Name DIRECTOR Frequency 136.2 MHZ
Type GND Name GND Frequency 121.725 MHZ
Type RDR Name Director Frequency 136.2 MHZ
Type TWR Name TWR Frequency 123.8 MHZ
Airport Navaids
Type VOR-DME Name Barkway Frequency 116250 KHZ
Type NDB Name Stansted Frequency 429 KHZ
Airport Weather Information & NOTAM
ADDS - METARS form results

(2242 UTC 29 June 2022)
Data provider http://aviationweather.gov/metar/data/
 
METAR text: EGSS 292220Z AUTO 19006KT 9999 -RA NCD 15/11 Q1011
Conditions at: EGSS (STANSTED AIRPORT, GB) observed 2220 UTC 29 June 2022
Temperature: 15.0°C (59°F)
Dewpoint: 11.0°C (52°F) [RH = 77%]
Pressure (altimeter): 29.85 inches Hg (1011.0 mb)
Winds: from the S (190 degrees) at 7 MPH (6 knots; 3.1 m/s)
Visibility: 6 or more miles (10+ km)
Ceiling: at least 12,000 feet AGL
Clouds: sky clear below 12,000 feet AGL
Weather: -RA  (light rain)

METAR text: EGSS 292150Z AUTO 18006KT 9999 NCD 15/10 Q1012
Conditions at: EGSS (STANSTED AIRPORT, GB) observed 2150 UTC 29 June 2022
Temperature: 15.0°C (59°F)
Dewpoint: 10.0°C (50°F) [RH = 72%]
Pressure (altimeter): 29.88 inches Hg (1012.0 mb)
Winds: from the S (180 degrees) at 7 MPH (6 knots; 3.1 m/s)
Visibility: 6 or more miles (10+ km)
Ceiling: at least 12,000 feet AGL
Clouds: sky clear below 12,000 feet AGL
Weather: no significant weather observed at this time

Forecast for: EGSS (STANSTED AIRPORT, GB)
Text: TAF EGSS 291653Z 2918/3024 19008KT 9999 SCT030
Forecast period: 1800 UTC 29 June 2022 to 0000 UTC 01 July 2022
Forecast type: FROM: standard forecast or significant change
Winds: from the S (190 degrees) at 9 MPH (8 knots; 4.1 m/s)
Visibility: 6 or more miles (10+ km)
Ceiling: at least 12,000 feet AGL
Clouds: scattered clouds at 3000 feet AGL
Weather: no significant weather forecast for this period
Text: PROB30
Forecast period: 2200 UTC 29 June 2022 to 0300 UTC 30 June 2022
Forecast type: TEMPORARY: The following changes expected for less than half the time period
Visibility: 4 miles (7 km)
Ceiling: 1400 feet AGL
Clouds: broken clouds at 1400 feet AGL
Weather: SHRA  (rain showers)
Text: TEMPO 2922/3003 7000 SHRA BKN014
Forecast period: 1000 to 1800 UTC 30 June 2022
Forecast type: TEMPORARY: The following changes expected for less than half the time period
Visibility: 4 miles (7 km)
Ceiling: unknown
Clouds: missing
Weather: SHRA  (rain showers)